sensor_id;sensor_type;location;lat;lon;timestamp;temperature;humidity
16247;DHT22;8231;50.866;7.944;2022-08-27T00:01:55;20.40;99.90
16247;DHT22;8231;50.866;7.944;2022-08-27T00:04:24;20.50;99.90
16247;DHT22;8231;50.866;7.944;2022-08-27T00:06:52;20.40;99.90
16247;DHT22;8231;50.866;7.944;2022-08-27T00:09:22;20.20;99.90
16247;DHT22;8231;50.866;7.944;2022-08-27T00:11:53;20.30;99.90
16247;DHT22;8231;50.866;7.944;2022-08-27T00:14:21;20.30;99.90
16247;DHT22;8231;50.866;7.944;2022-08-27T00:16:51;20.30;99.90
16247;DHT22;8231;50.866;7.944;2022-08-27T00:19:20;20.50;99.90
16247;DHT22;8231;50.866;7.944;2022-08-27T00:21:48;20.20;99.90
16247;DHT22;8231;50.866;7.944;2022-08-27T00:24:17;20.20;99.90
16247;DHT22;8231;50.866;7.944;2022-08-27T00:26:45;20.10;99.90
16247;DHT22;8231;50.866;7.944;2022-08-27T00:29:13;20.00;99.90
16247;DHT22;8231;50.866;7.944;2022-08-27T00:31:41;20.10;99.90
16247;DHT22;8231;50.866;7.944;2022-08-27T00:34:10;20.10;99.90
16247;DHT22;8231;50.866;7.944;2022-08-27T00:36:39;20.10;99.90
16247;DHT22;8231;50.866;7.944;2022-08-27T00:39:08;20.00;99.90
16247;DHT22;8231;50.866;7.944;2022-08-27T00:41:36;20.10;99.90
16247;DHT22;8231;50.866;7.944;2022-08-27T00:44:05;20.10;99.90
16247;DHT22;8231;50.866;7.944;2022-08-27T00:46:36;20.10;99.90
16247;DHT22;8231;50.866;7.944;2022-08-27T00:49:08;20.10;99.90
16247;DHT22;8231;50.866;7.944;2022-08-27T00:51:38;20.10;99.90
16247;DHT22;8231;50.866;7.944;2022-08-27T00:54:08;20.00;99.90
16247;DHT22;8231;50.866;7.944;2022-08-27T00:56:42;20.00;99.90
16247;DHT22;8231;50.866;7.944;2022-08-27T00:59:19;20.00;99.90
16247;DHT22;8231;50.866;7.944;2022-08-27T01:01:47;20.00;99.90
16247;DHT22;8231;50.866;7.944;2022-08-27T01:04:35;20.00;99.90
16247;DHT22;8231;50.866;7.944;2022-08-27T01:07:06;19.90;99.90
16247;DHT22;8231;50.866;7.944;2022-08-27T01:09:36;19.90;99.90
16247;DHT22;8231;50.866;7.944;2022-08-27T01:12:05;19.90;99.90
16247;DHT22;8231;50.866;7.944;2022-08-27T01:14:33;20.00;99.90
16247;DHT22;8231;50.866;7.944;2022-08-27T01:17:02;20.00;99.90
16247;DHT22;8231;50.866;7.944;2022-08-27T01:19:33;19.90;99.90
16247;DHT22;8231;50.866;7.944;2022-08-27T01:22:10;19.90;99.90
16247;DHT22;8231;50.866;7.944;2022-08-27T01:24:52;19.80;99.90
16247;DHT22;8231;50.866;7.944;2022-08-27T01:27:24;19.80;99.90
16247;DHT22;8231;50.866;7.944;2022-08-27T01:29:53;19.80;99.90
16247;DHT22;8231;50.866;7.944;2022-08-27T01:32:23;19.70;99.90
16247;DHT22;8231;50.866;7.944;2022-08-27T01:34:53;19.70;99.90
16247;DHT22;8231;50.866;7.944;2022-08-27T01:37:22;19.70;99.90
16247;DHT22;8231;50.866;7.944;2022-08-27T01:39:55;19.80;99.90
16247;DHT22;8231;50.866;7.944;2022-08-27T01:42:31;19.70;99.90
16247;DHT22;8231;50.866;7.944;2022-08-27T01:45:04;19.70;99.90
16247;DHT22;8231;50.866;7.944;2022-08-27T01:47:34;19.60;99.90
16247;DHT22;8231;50.866;7.944;2022-08-27T01:50:06;19.60;99.90
16247;DHT22;8231;50.866;7.944;2022-08-27T01:52:34;19.60;99.90
16247;DHT22;8231;50.866;7.944;2022-08-27T01:55:05;19.50;99.90
16247;DHT22;8231;50.866;7.944;2022-08-27T01:57:34;19.50;99.90
16247;DHT22;8231;50.866;7.944;2022-08-27T02:00:05;19.50;99.90
16247;DHT22;8231;50.866;7.944;2022-08-27T02:02:38;19.50;99.90
16247;DHT22;8231;50.866;7.944;2022-08-27T02:05:06;19.40;99.90
16247;DHT22;8231;50.866;7.944;2022-08-27T02:07:36;19.40;99.90
16247;DHT22;8231;50.866;7.944;2022-08-27T02:10:07;19.40;99.90
16247;DHT22;8231;50.866;7.944;2022-08-27T02:12:36;19.40;99.90
16247;DHT22;8231;50.866;7.944;2022-08-27T02:15:05;19.40;99.90
16247;DHT22;8231;50.866;7.944;2022-08-27T02:17:33;19.40;99.90
16247;DHT22;8231;50.866;7.944;2022-08-27T02:20:01;19.50;99.90
16247;DHT22;8231;50.866;7.944;2022-08-27T02:22:30;19.40;99.90
16247;DHT22;8231;50.866;7.944;2022-08-27T02:24:59;19.40;99.90
16247;DHT22;8231;50.866;7.944;2022-08-27T02:27:29;19.30;99.90
16247;DHT22;8231;50.866;7.944;2022-08-27T02:29:57;19.30;99.90
16247;DHT22;8231;50.866;7.944;2022-08-27T02:32:25;19.30;99.90
16247;DHT22;8231;50.866;7.944;2022-08-27T02:34:58;19.30;99.90
16247;DHT22;8231;50.866;7.944;2022-08-27T02:37:27;19.30;99.90
16247;DHT22;8231;50.866;7.944;2022-08-27T02:39:56;19.40;99.90
16247;DHT22;8231;50.866;7.944;2022-08-27T02:42:24;19.30;99.90
16247;DHT22;8231;50.866;7.944;2022-08-27T02:44:53;19.20;99.90
16247;DHT22;8231;50.866;7.944;2022-08-27T02:47:22;19.20;99.90
16247;DHT22;8231;50.866;7.944;2022-08-27T02:49:50;19.10;99.90
16247;DHT22;8231;50.866;7.944;2022-08-27T02:52:18;19.00;99.90
16247;DHT22;8231;50.866;7.944;2022-08-27T02:54:51;19.00;99.90
16247;DHT22;8231;50.866;7.944;2022-08-27T02:57:20;18.90;99.90
16247;DHT22;8231;50.866;7.944;2022-08-27T02:59:48;19.00;99.90
16247;DHT22;8231;50.866;7.944;2022-08-27T03:02:18;19.00;99.90
16247;DHT22;8231;50.866;7.944;2022-08-27T03:04:47;19.00;99.90
16247;DHT22;8231;50.866;7.944;2022-08-27T03:07:17;18.90;99.90
16247;DHT22;8231;50.866;7.944;2022-08-27T03:09:45;18.90;99.90
16247;DHT22;8231;50.866;7.944;2022-08-27T03:12:13;18.80;99.90
16247;DHT22;8231;50.866;7.944;2022-08-27T03:14:41;18.90;99.90
16247;DHT22;8231;50.866;7.944;2022-08-27T03:17:10;18.90;99.90
16247;DHT22;8231;50.866;7.944;2022-08-27T03:19:57;18.90;99.90
16247;DHT22;8231;50.866;7.944;2022-08-27T03:22:27;18.80;99.90
16247;DHT22;8231;50.866;7.944;2022-08-27T03:24:55;18.70;99.90
16247;DHT22;8231;50.866;7.944;2022-08-27T03:27:23;18.70;99.90
16247;DHT22;8231;50.866;7.944;2022-08-27T03:29:51;18.80;99.90
16247;DHT22;8231;50.866;7.944;2022-08-27T03:32:20;18.80;99.90
16247;DHT22;8231;50.866;7.944;2022-08-27T03:34:48;18.70;99.90
16247;DHT22;8231;50.866;7.944;2022-08-27T03:37:17;18.80;99.90
16247;DHT22;8231;50.866;7.944;2022-08-27T03:39:45;18.90;99.90
16247;DHT22;8231;50.866;7.944;2022-08-27T03:42:13;18.80;99.90
16247;DHT22;8231;50.866;7.944;2022-08-27T03:44:41;18.70;99.90
16247;DHT22;8231;50.866;7.944;2022-08-27T03:47:10;18.70;99.90
16247;DHT22;8231;50.866;7.944;2022-08-27T03:49:38;18.60;99.90
16247;DHT22;8231;50.866;7.944;2022-08-27T03:52:07;18.60;99.90
16247;DHT22;8231;50.866;7.944;2022-08-27T03:54:37;18.60;99.90
16247;DHT22;8231;50.866;7.944;2022-08-27T03:57:05;18.50;99.90
16247;DHT22;8231;50.866;7.944;2022-08-27T03:59:34;18.50;99.90
16247;DHT22;8231;50.866;7.944;2022-08-27T04:02:02;18.50;99.90
16247;DHT22;8231;50.866;7.944;2022-08-27T04:04:30;18.50;99.90
16247;DHT22;8231;50.866;7.944;2022-08-27T04:06:59;18.50;99.90
16247;DHT22;8231;50.866;7.944;2022-08-27T04:09:27;18.50;99.90
16247;DHT22;8231;50.866;7.944;2022-08-27T04:11:56;18.40;99.90
16247;DHT22;8231;50.866;7.944;2022-08-27T04:14:25;18.40;99.90
16247;DHT22;8231;50.866;7.944;2022-08-27T04:16:54;18.40;99.90
16247;DHT22;8231;50.866;7.944;2022-08-27T04:19:23;18.40;99.90
16247;DHT22;8231;50.866;7.944;2022-08-27T04:21:58;18.40;99.90
16247;DHT22;8231;50.866;7.944;2022-08-27T04:24:29;18.40;99.90
16247;DHT22;8231;50.866;7.944;2022-08-27T04:26:59;18.40;99.90
16247;DHT22;8231;50.866;7.944;2022-08-27T04:29:28;18.30;99.90
16247;DHT22;8231;50.866;7.944;2022-08-27T04:31:56;18.30;99.90
16247;DHT22;8231;50.866;7.944;2022-08-27T04:34:25;18.40;99.90
16247;DHT22;8231;50.866;7.944;2022-08-27T04:36:54;18.30;99.90
16247;DHT22;8231;50.866;7.944;2022-08-27T04:39:24;18.30;99.90
16247;DHT22;8231;50.866;7.944;2022-08-27T04:41:54;18.30;99.90
16247;DHT22;8231;50.866;7.944;2022-08-27T04:44:25;18.30;99.90
16247;DHT22;8231;50.866;7.944;2022-08-27T04:46:55;18.40;99.90
16247;DHT22;8231;50.866;7.944;2022-08-27T04:49:25;18.40;99.90
16247;DHT22;8231;50.866;7.944;2022-08-27T04:51:54;18.40;99.90
16247;DHT22;8231;50.866;7.944;2022-08-27T04:54:22;18.40;99.90
16247;DHT22;8231;50.866;7.944;2022-08-27T04:56:59;18.40;99.90
16247;DHT22;8231;50.866;7.944;2022-08-27T04:59:29;18.40;99.90
16247;DHT22;8231;50.866;7.944;2022-08-27T05:01:57;18.40;99.90
16247;DHT22;8231;50.866;7.944;2022-08-27T05:04:25;18.40;99.90
16247;DHT22;8231;50.866;7.944;2022-08-27T05:06:55;18.30;99.90
16247;DHT22;8231;50.866;7.944;2022-08-27T05:09:23;18.30;99.90
16247;DHT22;8231;50.866;7.944;2022-08-27T05:11:53;18.30;99.90
16247;DHT22;8231;50.866;7.944;2022-08-27T05:14:22;18.30;99.90
16247;DHT22;8231;50.866;7.944;2022-08-27T05:16:52;18.30;99.90
16247;DHT22;8231;50.866;7.944;2022-08-27T05:19:20;18.40;99.90
16247;DHT22;8231;50.866;7.944;2022-08-27T05:21:50;18.40;99.90
16247;DHT22;8231;50.866;7.944;2022-08-27T05:24:20;18.40;99.90
16247;DHT22;8231;50.866;7.944;2022-08-27T05:26:48;18.40;99.90
16247;DHT22;8231;50.866;7.944;2022-08-27T05:29:17;18.40;99.90
16247;DHT22;8231;50.866;7.944;2022-08-27T05:31:45;18.40;99.90
16247;DHT22;8231;50.866;7.944;2022-08-27T05:34:15;18.30;99.90
16247;DHT22;8231;50.866;7.944;2022-08-27T05:36:51;18.40;99.90
16247;DHT22;8231;50.866;7.944;2022-08-27T05:39:20;18.40;99.90
16247;DHT22;8231;50.866;7.944;2022-08-27T05:41:48;18.40;99.90
16247;DHT22;8231;50.866;7.944;2022-08-27T05:44:18;18.50;99.90
16247;DHT22;8231;50.866;7.944;2022-08-27T05:47:06;18.50;99.90
16247;DHT22;8231;50.866;7.944;2022-08-27T05:49:36;18.50;99.90
16247;DHT22;8231;50.866;7.944;2022-08-27T05:52:07;18.40;99.90
16247;DHT22;8231;50.866;7.944;2022-08-27T05:54:36;18.50;99.90
16247;DHT22;8231;50.866;7.944;2022-08-27T05:57:05;18.40;99.90
16247;DHT22;8231;50.866;7.944;2022-08-27T05:59:33;18.40;99.90
16247;DHT22;8231;50.866;7.944;2022-08-27T06:02:20;18.40;99.90
16247;DHT22;8231;50.866;7.944;2022-08-27T06:04:49;18.30;99.90
16247;DHT22;8231;50.866;7.944;2022-08-27T06:07:18;18.30;99.90
16247;DHT22;8231;50.866;7.944;2022-08-27T06:09:46;18.40;99.90
16247;DHT22;8231;50.866;7.944;2022-08-27T06:12:28;18.30;99.90
16247;DHT22;8231;50.866;7.944;2022-08-27T06:15:14;18.30;99.90
16247;DHT22;8231;50.866;7.944;2022-08-27T06:17:57;18.60;99.90
16247;DHT22;8231;50.866;7.944;2022-08-27T06:20:40;18.10;99.90
16247;DHT22;8231;50.866;7.944;2022-08-27T06:23:09;18.30;99.90
16247;DHT22;8231;50.866;7.944;2022-08-27T06:25:39;18.30;99.90
16247;DHT22;8231;50.866;7.944;2022-08-27T06:28:08;18.30;99.90
16247;DHT22;8231;50.866;7.944;2022-08-27T06:30:36;18.20;99.90
16247;DHT22;8231;50.866;7.944;2022-08-27T06:33:04;18.60;99.90
16247;DHT22;8231;50.866;7.944;2022-08-27T06:35:33;18.30;99.90
16247;DHT22;8231;50.866;7.944;2022-08-27T06:38:03;18.30;99.90
16247;DHT22;8231;50.866;7.944;2022-08-27T06:40:31;18.30;99.90
16247;DHT22;8231;50.866;7.944;2022-08-27T06:42:59;18.30;99.90
16247;DHT22;8231;50.866;7.944;2022-08-27T06:45:28;18.30;99.90
16247;DHT22;8231;50.866;7.944;2022-08-27T06:47:56;18.20;99.90
16247;DHT22;8231;50.866;7.944;2022-08-27T06:50:24;18.20;99.90
16247;DHT22;8231;50.866;7.944;2022-08-27T06:52:53;18.20;99.90
16247;DHT22;8231;50.866;7.944;2022-08-27T06:55:22;18.20;99.90
16247;DHT22;8231;50.866;7.944;2022-08-27T06:57:50;18.30;99.90
16247;DHT22;8231;50.866;7.944;2022-08-27T07:00:19;18.30;99.90
16247;DHT22;8231;50.866;7.944;2022-08-27T07:02:47;18.30;99.90
16247;DHT22;8231;50.866;7.944;2022-08-27T07:05:15;18.40;99.90
16247;DHT22;8231;50.866;7.944;2022-08-27T07:07:44;18.40;99.90
16247;DHT22;8231;50.866;7.944;2022-08-27T07:10:15;18.30;99.90
16247;DHT22;8231;50.866;7.944;2022-08-27T07:12:44;18.30;99.90
16247;DHT22;8231;50.866;7.944;2022-08-27T07:15:12;18.30;99.90
16247;DHT22;8231;50.866;7.944;2022-08-27T07:17:41;18.30;99.90
16247;DHT22;8231;50.866;7.944;2022-08-27T07:20:11;18.20;99.90
16247;DHT22;8231;50.866;7.944;2022-08-27T07:22:39;18.20;99.90
16247;DHT22;8231;50.866;7.944;2022-08-27T07:25:09;18.30;99.90
16247;DHT22;8231;50.866;7.944;2022-08-27T07:27:38;18.40;99.90
16247;DHT22;8231;50.866;7.944;2022-08-27T07:30:10;18.30;99.90
16247;DHT22;8231;50.866;7.944;2022-08-27T07:32:39;18.30;99.90
16247;DHT22;8231;50.866;7.944;2022-08-27T07:35:07;18.30;99.90
16247;DHT22;8231;50.866;7.944;2022-08-27T07:37:36;18.30;99.90
16247;DHT22;8231;50.866;7.944;2022-08-27T07:40:06;18.40;99.90
16247;DHT22;8231;50.866;7.944;2022-08-27T07:42:37;18.40;99.90
16247;DHT22;8231;50.866;7.944;2022-08-27T07:45:27;18.40;99.90
16247;DHT22;8231;50.866;7.944;2022-08-27T07:47:55;18.50;99.90
16247;DHT22;8231;50.866;7.944;2022-08-27T07:50:23;18.50;99.90
16247;DHT22;8231;50.866;7.944;2022-08-27T07:52:52;18.60;99.90
16247;DHT22;8231;50.866;7.944;2022-08-27T07:55:20;18.50;99.90
16247;DHT22;8231;50.866;7.944;2022-08-27T07:57:48;18.60;99.90
16247;DHT22;8231;50.866;7.944;2022-08-27T08:00:16;18.60;99.90
16247;DHT22;8231;50.866;7.944;2022-08-27T08:02:47;18.60;99.90
16247;DHT22;8231;50.866;7.944;2022-08-27T08:05:15;18.70;99.90
16247;DHT22;8231;50.866;7.944;2022-08-27T08:07:43;18.60;99.90
16247;DHT22;8231;50.866;7.944;2022-08-27T08:10:11;18.70;99.90
16247;DHT22;8231;50.866;7.944;2022-08-27T08:12:40;18.70;99.90
16247;DHT22;8231;50.866;7.944;2022-08-27T08:15:10;18.70;99.90
16247;DHT22;8231;50.866;7.944;2022-08-27T08:17:38;18.70;99.90
16247;DHT22;8231;50.866;7.944;2022-08-27T08:20:09;18.80;99.90
16247;DHT22;8231;50.866;7.944;2022-08-27T08:22:58;18.80;99.90
16247;DHT22;8231;50.866;7.944;2022-08-27T08:25:26;18.80;99.90
16247;DHT22;8231;50.866;7.944;2022-08-27T08:28:01;19.00;99.90
16247;DHT22;8231;50.866;7.944;2022-08-27T08:30:29;19.10;99.90
16247;DHT22;8231;50.866;7.944;2022-08-27T08:33:01;19.00;99.90
16247;DHT22;8231;50.866;7.944;2022-08-27T08:35:31;19.00;99.90
16247;DHT22;8231;50.866;7.944;2022-08-27T08:38:07;19.00;99.90
16247;DHT22;8231;50.866;7.944;2022-08-27T08:40:39;19.00;99.90
16247;DHT22;8231;50.866;7.944;2022-08-27T08:43:12;19.10;99.90
16247;DHT22;8231;50.866;7.944;2022-08-27T08:45:46;19.10;99.90
16247;DHT22;8231;50.866;7.944;2022-08-27T08:48:19;19.10;99.90
16247;DHT22;8231;50.866;7.944;2022-08-27T08:50:54;19.20;99.90
16247;DHT22;8231;50.866;7.944;2022-08-27T08:53:35;19.30;99.90
16247;DHT22;8231;50.866;7.944;2022-08-27T08:56:08;19.40;99.90
16247;DHT22;8231;50.866;7.944;2022-08-27T08:58:43;19.40;99.90
16247;DHT22;8231;50.866;7.944;2022-08-27T09:01:17;19.40;99.90
16247;DHT22;8231;50.866;7.944;2022-08-27T09:03:51;19.30;99.90
16247;DHT22;8231;50.866;7.944;2022-08-27T09:06:30;19.30;99.90
16247;DHT22;8231;50.866;7.944;2022-08-27T09:09:19;19.40;99.90
16247;DHT22;8231;50.866;7.944;2022-08-27T09:11:54;19.50;99.90
16247;DHT22;8231;50.866;7.944;2022-08-27T09:14:32;19.50;99.90
16247;DHT22;8231;50.866;7.944;2022-08-27T09:17:03;19.40;99.90
16247;DHT22;8231;50.866;7.944;2022-08-27T09:19:37;19.50;99.90
16247;DHT22;8231;50.866;7.944;2022-08-27T09:22:16;19.60;99.90
16247;DHT22;8231;50.866;7.944;2022-08-27T09:24:54;19.60;99.90
16247;DHT22;8231;50.866;7.944;2022-08-27T09:27:24;19.70;99.90
16247;DHT22;8231;50.866;7.944;2022-08-27T09:29:54;19.90;99.90
16247;DHT22;8231;50.866;7.944;2022-08-27T09:32:25;19.90;99.90
16247;DHT22;8231;50.866;7.944;2022-08-27T09:34:57;19.90;99.90
16247;DHT22;8231;50.866;7.944;2022-08-27T09:37:29;19.90;99.90
16247;DHT22;8231;50.866;7.944;2022-08-27T09:40:06;20.10;99.90
16247;DHT22;8231;50.866;7.944;2022-08-27T09:42:50;20.10;99.90
16247;DHT22;8231;50.866;7.944;2022-08-27T09:45:21;20.10;99.90
16247;DHT22;8231;50.866;7.944;2022-08-27T09:47:52;20.20;99.90
16247;DHT22;8231;50.866;7.944;2022-08-27T09:50:22;20.40;99.90
16247;DHT22;8231;50.866;7.944;2022-08-27T09:52:54;20.50;99.90
16247;DHT22;8231;50.866;7.944;2022-08-27T09:55:42;20.60;99.90
16247;DHT22;8231;50.866;7.944;2022-08-27T09:58:17;20.50;99.90
16247;DHT22;8231;50.866;7.944;2022-08-27T10:00:46;20.50;99.90
16247;DHT22;8231;50.866;7.944;2022-08-27T10:03:22;20.50;99.90
16247;DHT22;8231;50.866;7.944;2022-08-27T10:05:51;20.50;99.90
16247;DHT22;8231;50.866;7.944;2022-08-27T10:08:25;20.50;99.90
16247;DHT22;8231;50.866;7.944;2022-08-27T10:10:58;20.40;99.90
16247;DHT22;8231;50.866;7.944;2022-08-27T10:13:31;20.40;99.90
16247;DHT22;8231;50.866;7.944;2022-08-27T10:16:35;20.30;99.90
16247;DHT22;8231;50.866;7.944;2022-08-27T10:19:17;20.40;99.90
16247;DHT22;8231;50.866;7.944;2022-08-27T10:21:53;20.40;99.90
16247;DHT22;8231;50.866;7.944;2022-08-27T10:24:33;20.50;99.90
16247;DHT22;8231;50.866;7.944;2022-08-27T10:27:11;20.50;99.90
16247;DHT22;8231;50.866;7.944;2022-08-27T10:29:49;20.60;99.90
16247;DHT22;8231;50.866;7.944;2022-08-27T10:32:30;20.50;99.90
16247;DHT22;8231;50.866;7.944;2022-08-27T10:35:07;20.40;99.90
16247;DHT22;8231;50.866;7.944;2022-08-27T10:37:42;20.40;99.90
16247;DHT22;8231;50.866;7.944;2022-08-27T10:40:19;20.60;99.90
16247;DHT22;8231;50.866;7.944;2022-08-27T10:42:55;20.80;99.90
16247;DHT22;8231;50.866;7.944;2022-08-27T10:45:36;20.80;99.90
16247;DHT22;8231;50.866;7.944;2022-08-27T10:48:18;20.90;99.90
16247;DHT22;8231;50.866;7.944;2022-08-27T10:50:54;20.90;99.90
16247;DHT22;8231;50.866;7.944;2022-08-27T10:53:30;20.90;99.90
16247;DHT22;8231;50.866;7.944;2022-08-27T10:56:12;20.80;99.90
16247;DHT22;8231;50.866;7.944;2022-08-27T10:58:53;20.70;99.90
16247;DHT22;8231;50.866;7.944;2022-08-27T11:01:33;20.90;99.90
16247;DHT22;8231;50.866;7.944;2022-08-27T11:04:06;21.00;99.90
16247;DHT22;8231;50.866;7.944;2022-08-27T11:06:40;21.00;99.90
16247;DHT22;8231;50.866;7.944;2022-08-27T11:09:13;21.00;99.90
16247;DHT22;8231;50.866;7.944;2022-08-27T11:11:47;21.20;99.90
16247;DHT22;8231;50.866;7.944;2022-08-27T11:14:42;21.30;99.90
16247;DHT22;8231;50.866;7.944;2022-08-27T11:17:15;21.40;99.90
16247;DHT22;8231;50.866;7.944;2022-08-27T11:19:52;21.50;99.90
16247;DHT22;8231;50.866;7.944;2022-08-27T11:22:25;21.60;99.90
16247;DHT22;8231;50.866;7.944;2022-08-27T11:25:02;21.50;99.90
16247;DHT22;8231;50.866;7.944;2022-08-27T11:27:34;21.70;99.90
16247;DHT22;8231;50.866;7.944;2022-08-27T11:30:06;21.60;99.90
16247;DHT22;8231;50.866;7.944;2022-08-27T11:32:45;21.70;99.90
16247;DHT22;8231;50.866;7.944;2022-08-27T11:35:18;21.80;99.90
16247;DHT22;8231;50.866;7.944;2022-08-27T11:41:06;21.90;99.90
16247;DHT22;8231;50.866;7.944;2022-08-27T11:43:36;21.90;99.90
16247;DHT22;8231;50.866;7.944;2022-08-27T11:46:07;21.90;99.90
16247;DHT22;8231;50.866;7.944;2022-08-27T11:48:38;22.10;99.90
16247;DHT22;8231;50.866;7.944;2022-08-27T11:51:10;22.20;99.90
16247;DHT22;8231;50.866;7.944;2022-08-27T11:53:54;22.10;99.90
16247;DHT22;8231;50.866;7.944;2022-08-27T11:56:35;22.30;99.90
16247;DHT22;8231;50.866;7.944;2022-08-27T11:59:18;22.30;99.90
16247;DHT22;8231;50.866;7.944;2022-08-27T12:01:48;22.30;99.90
16247;DHT22;8231;50.866;7.944;2022-08-27T12:04:31;22.10;99.90
16247;DHT22;8231;50.866;7.944;2022-08-27T12:07:02;22.10;99.90
16247;DHT22;8231;50.866;7.944;2022-08-27T12:09:51;21.80;99.90
16247;DHT22;8231;50.866;7.944;2022-08-27T12:12:31;21.80;99.90
16247;DHT22;8231;50.866;7.944;2022-08-27T12:15:06;22.00;99.90
16247;DHT22;8231;50.866;7.944;2022-08-27T12:17:41;22.30;99.90
16247;DHT22;8231;50.866;7.944;2022-08-27T12:20:19;22.20;99.90
16247;DHT22;8231;50.866;7.944;2022-08-27T12:23:09;22.10;99.90
16247;DHT22;8231;50.866;7.944;2022-08-27T12:26:00;22.10;99.90
16247;DHT22;8231;50.866;7.944;2022-08-27T12:28:29;21.90;99.90
16247;DHT22;8231;50.866;7.944;2022-08-27T12:30:58;22.00;99.90
16247;DHT22;8231;50.866;7.944;2022-08-27T12:33:30;22.20;99.90
16247;DHT22;8231;50.866;7.944;2022-08-27T12:36:07;22.40;99.90
16247;DHT22;8231;50.866;7.944;2022-08-27T12:38:41;22.60;99.90
16247;DHT22;8231;50.866;7.944;2022-08-27T12:41:24;22.70;99.90
16247;DHT22;8231;50.866;7.944;2022-08-27T12:44:02;22.90;99.90
16247;DHT22;8231;50.866;7.944;2022-08-27T12:46:36;22.80;99.90
16247;DHT22;8231;50.866;7.944;2022-08-27T12:49:10;22.80;99.90
16247;DHT22;8231;50.866;7.944;2022-08-27T12:52:00;23.00;99.90
16247;DHT22;8231;50.866;7.944;2022-08-27T12:54:39;23.20;99.90
16247;DHT22;8231;50.866;7.944;2022-08-27T12:57:16;23.50;99.90
16247;DHT22;8231;50.866;7.944;2022-08-27T12:59:56;23.60;99.90
16247;DHT22;8231;50.866;7.944;2022-08-27T13:05:21;23.10;99.90
16247;DHT22;8231;50.866;7.944;2022-08-27T13:07:51;23.00;99.90
16247;DHT22;8231;50.866;7.944;2022-08-27T13:10:20;23.10;99.90
16247;DHT22;8231;50.866;7.944;2022-08-27T13:13:02;23.30;99.90
16247;DHT22;8231;50.866;7.944;2022-08-27T13:15:31;23.40;99.90
16247;DHT22;8231;50.866;7.944;2022-08-27T13:18:04;23.30;99.90
16247;DHT22;8231;50.866;7.944;2022-08-27T13:20:36;23.20;99.90
16247;DHT22;8231;50.866;7.944;2022-08-27T13:23:07;23.10;99.90
16247;DHT22;8231;50.866;7.944;2022-08-27T13:25:53;22.70;99.90
16247;DHT22;8231;50.866;7.944;2022-08-27T13:28:25;23.00;99.90
16247;DHT22;8231;50.866;7.944;2022-08-27T13:30:55;23.00;99.90
16247;DHT22;8231;50.866;7.944;2022-08-27T13:33:26;22.90;99.90
16247;DHT22;8231;50.866;7.944;2022-08-27T13:35:55;23.20;99.90
16247;DHT22;8231;50.866;7.944;2022-08-27T13:38:26;23.20;99.90
16247;DHT22;8231;50.866;7.944;2022-08-27T13:40:57;23.40;99.90
16247;DHT22;8231;50.866;7.944;2022-08-27T13:43:33;23.80;99.90
16247;DHT22;8231;50.866;7.944;2022-08-27T13:46:06;23.80;99.90
16247;DHT22;8231;50.866;7.944;2022-08-27T13:48:39;23.90;99.90
16247;DHT22;8231;50.866;7.944;2022-08-27T13:51:07;23.90;99.90
16247;DHT22;8231;50.866;7.944;2022-08-27T13:53:41;23.90;99.90
16247;DHT22;8231;50.866;7.944;2022-08-27T13:56:29;24.00;99.90
16247;DHT22;8231;50.866;7.944;2022-08-27T13:59:10;23.60;99.90
16247;DHT22;8231;50.866;7.944;2022-08-27T14:01:42;23.80;99.90
16247;DHT22;8231;50.866;7.944;2022-08-27T14:04:26;23.90;99.90
16247;DHT22;8231;50.866;7.944;2022-08-27T14:06:54;24.00;99.90
16247;DHT22;8231;50.866;7.944;2022-08-27T14:09:24;24.10;99.90
16247;DHT22;8231;50.866;7.944;2022-08-27T14:11:58;23.90;99.90
16247;DHT22;8231;50.866;7.944;2022-08-27T14:14:28;23.80;99.90
16247;DHT22;8231;50.866;7.944;2022-08-27T14:16:58;24.10;99.90
16247;DHT22;8231;50.866;7.944;2022-08-27T14:19:29;24.40;99.90
16247;DHT22;8231;50.866;7.944;2022-08-27T14:22:03;24.40;99.90
16247;DHT22;8231;50.866;7.944;2022-08-27T14:24:32;24.40;99.90
16247;DHT22;8231;50.866;7.944;2022-08-27T14:27:04;24.20;99.90
16247;DHT22;8231;50.866;7.944;2022-08-27T14:29:35;23.90;99.90
16247;DHT22;8231;50.866;7.944;2022-08-27T14:32:04;23.60;99.90
16247;DHT22;8231;50.866;7.944;2022-08-27T14:34:34;23.40;99.90
16247;DHT22;8231;50.866;7.944;2022-08-27T14:37:03;23.10;99.90
16247;DHT22;8231;50.866;7.944;2022-08-27T14:39:32;23.00;99.90
16247;DHT22;8231;50.866;7.944;2022-08-27T14:42:01;22.90;99.90
16247;DHT22;8231;50.866;7.944;2022-08-27T14:44:31;22.80;99.90
16247;DHT22;8231;50.866;7.944;2022-08-27T14:47:01;22.80;99.90
16247;DHT22;8231;50.866;7.944;2022-08-27T14:49:39;23.00;99.90
16247;DHT22;8231;50.866;7.944;2022-08-27T14:52:08;23.20;99.90
16247;DHT22;8231;50.866;7.944;2022-08-27T14:54:38;23.30;99.90
16247;DHT22;8231;50.866;7.944;2022-08-27T14:57:07;23.10;99.90
16247;DHT22;8231;50.866;7.944;2022-08-27T14:59:36;23.00;99.90
16247;DHT22;8231;50.866;7.944;2022-08-27T15:02:07;23.00;99.90
16247;DHT22;8231;50.866;7.944;2022-08-27T15:04:37;23.00;99.90
16247;DHT22;8231;50.866;7.944;2022-08-27T15:07:08;23.00;99.90
16247;DHT22;8231;50.866;7.944;2022-08-27T15:09:36;22.80;99.90
16247;DHT22;8231;50.866;7.944;2022-08-27T15:12:04;22.90;99.90
16247;DHT22;8231;50.866;7.944;2022-08-27T15:14:41;22.70;99.90
16247;DHT22;8231;50.866;7.944;2022-08-27T15:17:10;22.60;99.90
16247;DHT22;8231;50.866;7.944;2022-08-27T15:20:02;22.50;99.90
16247;DHT22;8231;50.866;7.944;2022-08-27T15:22:31;22.60;99.90
16247;DHT22;8231;50.866;7.944;2022-08-27T15:25:01;22.80;99.90
16247;DHT22;8231;50.866;7.944;2022-08-27T15:27:31;22.70;99.90
16247;DHT22;8231;50.866;7.944;2022-08-27T15:30:06;23.00;99.90
16247;DHT22;8231;50.866;7.944;2022-08-27T15:32:44;23.20;99.90
16247;DHT22;8231;50.866;7.944;2022-08-27T15:35:16;23.20;99.90
16247;DHT22;8231;50.866;7.944;2022-08-27T15:37:46;23.10;99.90
16247;DHT22;8231;50.866;7.944;2022-08-27T15:40:16;23.00;99.90
16247;DHT22;8231;50.866;7.944;2022-08-27T15:42:48;22.90;99.90
16247;DHT22;8231;50.866;7.944;2022-08-27T15:45:17;22.70;99.90
16247;DHT22;8231;50.866;7.944;2022-08-27T15:47:47;22.70;99.90
16247;DHT22;8231;50.866;7.944;2022-08-27T15:50:19;22.70;99.90
16247;DHT22;8231;50.866;7.944;2022-08-27T15:52:50;22.70;99.90
16247;DHT22;8231;50.866;7.944;2022-08-27T15:55:22;22.40;99.90
16247;DHT22;8231;50.866;7.944;2022-08-27T15:57:50;22.30;99.90
16247;DHT22;8231;50.866;7.944;2022-08-27T16:00:18;22.30;99.90
16247;DHT22;8231;50.866;7.944;2022-08-27T16:02:48;22.30;99.90
16247;DHT22;8231;50.866;7.944;2022-08-27T16:05:18;22.20;99.90
16247;DHT22;8231;50.866;7.944;2022-08-27T16:07:48;21.90;99.90
16247;DHT22;8231;50.866;7.944;2022-08-27T16:10:16;21.90;99.90
16247;DHT22;8231;50.866;7.944;2022-08-27T16:12:44;21.90;99.90
16247;DHT22;8231;50.866;7.944;2022-08-27T16:15:13;21.70;99.90
16247;DHT22;8231;50.866;7.944;2022-08-27T16:17:43;21.80;99.90
16247;DHT22;8231;50.866;7.944;2022-08-27T16:20:14;21.70;99.90
16247;DHT22;8231;50.866;7.944;2022-08-27T16:22:44;21.60;99.90